KCKV Airport (Outlaw Field) Information

FAA: CKV - ICAO: KCKV

KCKV Airport Location

State Tennessee
County Montgomery
City Clarksville
KCKV Airport is 6 miles northwest of Clarksville, TN.
Latitude 36-37-18.7000N
Longitude 087-24-53.8000W
Elevation 549ft

KCKV Airport METARs

METAR KCKV 262152Z AUTO 00000KT 10SM CLR 05/M09 A3019 RMK AO2 SLP227 T00501089
Altimeter 30.19"
Temperature 5.0°C (41.0°F)
Wind 0° at 0KT
Clouds Skies are clear.
Visibility 10.0mi
Time observed: 2021-11-26T21:52:00Z

KCKV Airport Details

Status Operational
Activation October 1937
Ownership Public
Usage Public
Chart ST LOUIS
ATC on-site No
Beacon schedule sunset-sunrise
Beacon color clear green

KCKV Airport Contacts

Owner CLARKSVILLE MONTGOMERY COUNTY RAA
Owner address 200 A OUTLAW FIELD ROAD, CLARKSVILLE, TN 37042
Owner phone 931-431-2080
Manager R. NEAL MELTON
Manager address 10612 EMORY ROAD, LUTTRELL, TN 37779
Manager phone (865) 805-1536

KCKV Airport (Outlaw Field) Radio Frequencies

KCKV (Airport) Radio Frequencies

UNICOM 122.8
Common traffic advisory frequency (CTAF) 122.8